Time;durP1;ratioP1;P1;durP2;ratioP2;P2;SDS_P1;SDS_P2;PMS_P1;PMS_P2;Temp;Humidity;BMP_temperature;BMP_pressure;BME280_temperature;BME280_humidity;BME280_pressure;Samples;Min_cycle;Max_cycle;Signal;HPM_P1;HPM_P2
2022/06/15 01:10:16;;;;;;;4.20;4.00;;;15.50;99.90;;;;;;4975765;28;20460;-94
2022/06/15 01:12:51;;;;;;;5.07;4.57;;;;;;;;;;4956470;28;20454;-93
2022/06/15 03:37:25;;;;;;;7.13;6.60;;;13.90;99.90;;;;;;4798235;26;20479;-89
2022/06/15 03:39:54;;;;;;;6.83;6.23;;;;;;;;;;4983627;28;20461;-88
2022/06/15 03:42:34;;;;;;;7.00;6.40;;;13.90;99.90;;;;;;4996309;28;20461;-89
2022/06/15 03:45:30;;;;;;;7.20;6.50;;;14.00;99.90;;;;;;4981505;28;20984;-89
2022/06/15 03:47:59;;;;;;;6.83;6.13;;;;;;;;;;4989330;28;20511;-89
2022/06/15 03:50:33;;;;;;;6.53;6.00;;;;;;;;;;5000811;28;20432;-90
2022/06/15 03:53:08;;;;;;;6.73;6.33;;;;;;;;;;4977515;28;20492;-89
2022/06/15 03:55:45;;;;;;;6.40;6.10;;;14.00;99.90;;;;;;4993889;28;20457;-90
2022/06/15 03:58:13;;;;;;;7.37;6.87;;;14.00;99.90;;;;;;4982105;28;20416;-90
2022/06/15 04:00:42;;;;;;;7.47;6.97;;;;;;;;;;4989706;28;20533;-90
2022/06/15 04:03:17;;;;;;;6.60;6.10;;;;;;;;;;4995002;28;20970;-91
2022/06/15 04:05:55;;;;;;;7.10;6.50;;;13.90;99.90;;;;;;5011742;28;20442;-90
2022/06/15 04:08:39;;;;;;;7.17;6.70;;;14.10;99.90;;;;;;4998702;28;20423;-88
2022/06/15 04:11:58;;;;;;;7.00;6.47;;;;;;;;;;4982849;28;20539;-89
2022/06/15 04:14:12;;;;;;;7.37;6.87;;;;;;;;;;4976029;28;20416;-88
2022/06/15 04:17:02;;;;;;;7.10;6.30;;;;;;;;;;4979548;28;20982;-90
2022/06/15 04:22:45;;;;;;;6.90;6.50;;;;;;;;;;4961564;28;20869;-95
2022/06/15 04:51:41;;;;;;;7.50;7.03;;;15.70;99.90;;;;;;5137061;22;20469;-90
2022/06/15 04:57:06;;;;;;;8.50;7.70;;;;;;;;;;4991669;28;20480;-91
2022/06/15 04:59:34;;;;;;;7.87;7.30;;;;;;;;;;5002221;28;20453;-88
2022/06/15 05:02:03;;;;;;;7.17;6.60;;;;;;;;;;5138191;22;20489;-90
2022/06/15 05:04:37;;;;;;;8.13;7.50;;;;;;;;;;5472723;22;20551;-92
2022/06/15 05:07:24;;;;;;;11.83;8.67;;;;;;;;;;5009457;28;20451;-91
2022/06/15 05:09:52;;;;;;;8.67;8.07;;;;;;;;;;5141204;22;20537;-87
2022/06/15 05:12:21;;;;;;;7.97;7.20;;;;;;;;;;5013728;28;20489;-92
2022/06/15 05:14:47;;;;;;;10.20;9.30;;;;;;;;;;5036475;28;20418;-90
2022/06/15 05:17:23;;;;;;;8.88;8.07;;;17.90;99.90;;;;;;5027683;28;20407;-92
2022/06/15 05:22:36;;;;;;;9.07;8.30;;;;;;;;;;5020606;22;20441;-92
2022/06/15 05:25:10;;;;;;;12.93;9.10;;;18.50;99.90;;;;;;4993735;28;20457;-89
2022/06/15 05:27:41;;;;;;;8.97;7.93;;;;;;;;;;5545321;22;20941;-90
2022/06/15 05:38:49;;;;;;;9.67;8.77;;;;;;;;;;5127949;22;20893;-90
2022/06/15 05:41:18;;;;;;;8.73;7.60;;;19.60;99.90;;;;;;4998060;28;20440;-91
2022/06/15 05:44:04;;;;;;;9.70;8.90;;;;;;;;;;5215525;22;20502;-91
2022/06/15 05:47:06;;;;;;;9.80;8.13;;;19.80;99.90;;;;;;5436974;22;20490;-90
2022/06/15 05:49:38;;;;;;;9.27;8.37;;;;;;;;;;5016923;28;20562;-90
2022/06/15 05:52:09;;;;;;;9.80;9.10;;;;;;;;;;5006654;28;20535;-89
2022/06/15 05:54:35;;;;;;;10.57;7.70;;;;;;;;;;5009598;28;20428;-90
2022/06/15 05:59:37;;;;;;;8.70;7.90;;;;;;;;;;5076942;23;20517;-88
2022/06/15 06:02:03;;;;;;;8.30;7.50;;;20.30;99.90;;;;;;5020234;28;20423;-92
2022/06/15 06:05:10;;;;;;;8.30;7.43;;;20.70;99.90;;;;;;5015602;28;20476;-87
2022/06/15 06:07:47;;;;;;;8.30;7.13;;;;;;;;;;4228878;22;20538;-91
2022/06/15 06:10:13;;;;;;;8.77;7.97;;;;;;;;;;5012985;28;20474;-91
2022/06/15 06:12:40;;;;;;;7.63;7.00;;;;;;;;;;5032765;28;20501;-90
2022/06/15 06:15:06;;;;;;;8.80;7.00;;;21.60;96.80;;;;;;5028893;28;20569;-92
2022/06/15 06:17:32;;;;;;;7.93;7.33;;;;;;;;;;5050599;28;20426;-89
2022/06/15 06:20:00;;;;;;;7.57;6.97;;;21.60;94.60;;;;;;5053453;28;20481;-90
2022/06/15 06:22:36;;;;;;;;;;;;;;;;;;;;;
2022/06/15 06:25:02;;;;;;;7.10;6.47;;;;;;;;;;5027882;28;20454;-87
2022/06/15 06:27:36;;;;;;;7.47;6.73;;;;;;;;;;5009534;28;20458;-92
2022/06/15 06:30:06;;;;;;;6.57;6.17;;;23.00;89.50;;;;;;5003287;28;20412;-91
2022/06/15 06:32:32;;;;;;;7.60;6.33;;;;;;;;;;5023753;28;20428;-89
2022/06/15 06:38:03;;;;;;;6.93;6.27;;;24.10;80.00;;;;;;5011515;28;20447;-92
2022/06/15 06:41:02;;;;;;;6.93;6.37;;;24.60;77.60;;;;;;5008708;28;20466;-91
2022/06/15 06:44:09;;;;;;;5.87;5.40;;;24.60;77.80;;;;;;4994177;28;20844;-92
2022/06/15 06:46:43;;;;;;;6.53;6.00;;;;;;;;;;4995656;28;20474;-92
2022/06/15 06:49:09;;;;;;;7.60;5.93;;;;;;;;;;5027627;28;20851;-89
2022/06/15 06:51:36;;;;;;;7.40;6.77;;;;;;;;;;5005998;28;20952;-88
2022/06/15 06:54:03;;;;;;;6.83;6.53;;;23.70;77.40;;;;;;5016028;28;20431;-89
2022/06/15 06:56:29;;;;;;;6.93;6.37;;;;;;;;;;4993986;28;20493;-90
2022/06/15 06:58:55;;;;;;;6.30;5.80;;;;;;;;;;5010090;28;20561;-89
2022/06/15 07:01:21;;;;;;;6.57;6.17;;;;;;;;;;5012458;28;20573;-87
2022/06/15 07:03:47;;;;;;;5.90;5.50;;;;;;;;;;4999493;28;20552;-89
2022/06/15 07:06:13;;;;;;;6.43;5.90;;;24.70;77.30;;;;;;4989499;28;20535;-87
2022/06/15 07:08:40;;;;;;;10.23;5.97;;;;;;;;;;5014410;28;20513;-89
2022/06/15 07:11:15;;;;;;;6.00;5.60;;;25.50;68.30;;;;;;4990406;28;20448;-88
2022/06/15 07:13:41;;;;;;;6.67;5.87;;;26.10;66.30;;;;;;4986988;28;20499;-87
2022/06/15 07:16:08;;;;;;;5.77;5.37;;;28.30;68.10;;;;;;4633080;28;9999944;-89
2022/06/15 07:18:34;;;;;;;6.23;5.60;;;27.30;65.80;;;;;;5014461;28;20192;-89
2022/06/15 07:21:07;;;;;;;5.10;4.90;;;26.90;85.70;;;;;;4981474;28;20452;-86
2022/06/15 07:23:33;;;;;;;6.50;5.90;;;;;;;;;;4992819;28;20441;-89
2022/06/15 07:26:06;;;;;;;4.53;4.43;;;27.30;59.90;;;;;;5022660;28;20451;-88
2022/06/15 07:28:32;;;;;;;4.70;4.57;;;28.30;59.70;;;;;;5017447;28;20423;-88
2022/06/15 07:31:00;;;;;;;5.57;5.20;;;28.00;58.60;;;;;;4976952;28;20440;-89
2022/06/15 07:33:26;;;;;;;5.10;4.70;;;27.90;58.60;;;;;;5007180;28;20424;-88
2022/06/15 07:35:52;;;;;;;8.50;5.10;;;29.50;58.60;;;;;;5009597;28;20530;-88
2022/06/15 07:38:19;;;;;;;5.97;5.50;;;28.70;57.00;;;;;;5012535;28;20548;-89
2022/06/15 07:40:46;;;;;;;5.87;5.43;;;28.50;83.60;;;;;;5012825;28;20196;-89
2022/06/15 07:43:12;;;;;;;6.93;5.13;;;28.50;57.90;;;;;;5011817;28;20854;-91
2022/06/15 07:45:48;;;;;;;5.07;4.60;;;;;;;;;;4995038;28;20439;-91
2022/06/15 07:51:09;;;;;;;;;;;;;;;;;;;;;
2022/06/15 07:53:44;;;;;;;4.90;4.50;;;29.50;55.30;;;;;;5030432;28;20455;-90
2022/06/15 07:56:21;;;;;;;4.90;4.60;;;29.50;70.80;;;;;;4994254;28;20423;-90
2022/06/15 07:58:49;;;;;;;5.00;4.70;;;30.20;75.20;;;;;;4988008;28;20826;-90
2022/06/15 08:01:18;;;;;;;4.63;4.33;;;;;;;;;;5026622;28;20410;-88
2022/06/15 08:03:55;;;;;;;4.93;4.47;;;29.90;71.90;;;;;;5025471;28;20439;-90
2022/06/15 08:06:23;;;;;;;4.83;4.53;;;;;;;;;;5006863;28;20420;-91
2022/06/15 08:09:13;;;;;;;4.87;4.43;;;29.10;53.00;;;;;;5002166;28;20491;-90
2022/06/15 08:14:31;;;;;;;7.53;4.80;;;;;;;;;;4972998;28;20221;-90
2022/06/15 08:16:57;;;;;;;5.53;5.07;;;;;;;;;;4980123;28;20441;-90
2022/06/15 08:19:26;;;;;;;8.10;4.10;;;31.30;70.70;;;;;;4977239;28;20477;-90
2022/06/15 08:21:52;;;;;;;6.63;4.20;;;30.90;49.80;;;;;;4988566;28;20468;-89
2022/06/15 08:24:21;;;;;;;4.20;4.10;;;32.80;47.70;;;;;;4983957;28;20465;-90
2022/06/15 08:26:48;;;;;;;4.97;4.50;;;;;;;;;;4977431;28;20517;-88
2022/06/15 08:29:14;;;;;;;4.30;4.00;;;;;;;;;;4983722;28;20860;-86
2022/06/15 08:31:40;;;;;;;4.30;4.00;;;;;;;;;;4987435;28;20445;-88
2022/06/15 08:34:12;;;;;;;4.43;4.03;;;31.30;46.70;;;;;;4989308;28;20444;-91
2022/06/15 08:36:38;;;;;;;4.20;4.00;;;;;;;;;;4988945;28;20452;-90
2022/06/15 08:39:05;;;;;;;4.37;4.07;;;;;;;;;;5011032;28;21053;-90
2022/06/15 08:41:51;;;;;;;4.03;3.70;;;31.50;49.20;;;;;;4999054;28;20461;-90
2022/06/15 08:44:32;;;;;;;4.27;3.80;;;32.50;45.00;;;;;;4991809;28;20433;-89
2022/06/15 08:47:34;;;;;;;8.57;3.90;;;32.20;62.60;;;;;;4967698;28;20828;-88
2022/06/15 08:50:21;;;;;;;4.73;3.37;;;32.20;45.10;;;;;;4970404;28;20438;-88
2022/06/15 08:53:24;;;;;;;4.20;3.77;;;32.70;43.00;;;;;;4987714;28;20788;-88
2022/06/15 08:56:08;;;;;;;3.90;3.40;;;33.60;44.80;;;;;;4966312;28;20432;-88
2022/06/15 08:58:48;;;;;;;3.63;3.43;;;34.20;42.80;;;;;;4983194;28;20417;-90
2022/06/15 09:01:39;;;;;;;3.60;3.40;;;34.40;42.00;;;;;;4979938;28;20461;-88
2022/06/15 09:04:37;;;;;;;4.13;2.80;;;34.90;43.90;;;;;;4981073;28;20480;-90
2022/06/15 09:07:44;;;;;;;3.43;3.23;;;32.90;40.90;;;;;;4967737;28;20525;-88
2022/06/15 09:10:46;;;;;;;5.47;3.57;;;34.40;41.80;;;;;;4932422;29;20474;-89
2022/06/15 09:14:00;;;;;;;3.53;3.33;;;33.90;41.70;;;;;;4946823;29;20520;-88
2022/06/15 09:17:03;;;;;;;4.00;3.87;;;32.10;43.50;;;;;;4996242;28;20445;-89
2022/06/15 09:19:34;;;;;;;4.10;3.80;;;32.70;45.30;;;;;;5006300;28;20482;-89
2022/06/15 09:22:23;;;;;;;3.93;3.60;;;32.70;43.30;;;;;;5013831;28;20450;-89
2022/06/15 09:25:08;;;;;;;4.40;4.07;;;32.60;45.40;;;;;;4986349;28;20462;-90
2022/06/15 09:27:41;;;;;;;4.43;3.43;;;;;;;;;;5000560;28;20434;-90
2022/06/15 09:30:45;;;;;;;3.50;3.30;;;32.40;42.90;;;;;;4989913;28;20518;-90
2022/06/15 09:33:48;;;;;;;3.30;3.20;;;33.20;58.20;;;;;;4993453;28;20432;-88
2022/06/15 09:36:55;;;;;;;3.37;3.27;;;33.80;54.80;;;;;;4989002;28;20436;-90
2022/06/15 09:39:55;;;;;;;3.93;3.70;;;34.90;52.40;;;;;;5011785;28;20570;-90
2022/06/15 09:42:48;;;;;;;3.37;3.27;;;35.80;51.50;;;;;;4995536;28;20427;-91
2022/06/15 09:45:38;;;;;;;3.93;3.57;;;35.60;40.80;;;;;;4981530;28;20455;-91
2022/06/15 09:48:27;;;;;;;5.03;3.90;;;33.80;38.70;;;;;;4983853;28;20495;-90
2022/06/15 09:51:07;;;;;;;3.57;3.07;;;35.90;42.30;;;;;;4976786;28;20445;-91
2022/06/15 09:53:53;;;;;;;4.87;3.43;;;35.00;40.80;;;;;;4973223;28;20516;-90
2022/06/15 09:56:23;;;;;;;3.63;3.40;;;35.50;40.60;;;;;;4983400;28;20429;-92
2022/06/15 09:58:57;;;;;;;2.90;2.70;;;35.40;40.40;;;;;;4982480;28;20456;-90
2022/06/15 10:01:36;;;;;;;3.17;3.00;;;35.50;41.60;;;;;;4981739;28;20410;-93
2022/06/15 10:04:09;;;;;;;2.73;2.73;;;36.30;54.90;;;;;;4998639;28;20825;-90
2022/06/15 10:07:02;;;;;;;4.73;4.37;;;36.20;38.80;;;;;;4990250;28;20460;-92
2022/06/15 10:09:48;;;;;;;3.30;3.00;;;37.20;40.50;;;;;;4985147;28;20518;-90
2022/06/15 10:12:59;;;;;;;3.27;3.17;;;37.10;38.00;;;;;;4998349;28;20429;-91
2022/06/15 10:15:43;;;;;;;3.40;3.13;;;36.50;49.80;;;;;;4999995;28;20447;-93
2022/06/15 10:18:30;;;;;;;6.60;4.53;;;35.60;38.60;;;;;;4984374;28;20516;-92
2022/06/15 10:21:35;;;;;;;3.17;3.07;;;36.30;50.70;;;;;;4993121;28;20495;-93
2022/06/15 10:24:44;;;;;;;4.63;4.00;;;36.10;38.50;;;;;;4999025;28;20425;-92
2022/06/15 10:27:16;;;;;;;4.90;4.60;;;36.10;36.70;;;;;;4917896;29;20448;-91
2022/06/15 10:29:55;;;;;;;4.60;4.20;;;37.00;54.50;;;;;;4934972;29;20520;-90
2022/06/15 10:32:23;;;;;;;7.07;4.20;;;36.90;37.50;;;;;;4910626;29;20539;-93
2022/06/15 10:35:11;;;;;;;4.90;4.37;;;36.90;37.70;;;;;;4912062;28;20423;-95
2022/06/15 10:37:56;;;;;;;4.20;3.90;;;38.10;51.90;;;;;;5020359;28;20460;-94
2022/06/15 10:40:29;;;;;;;4.60;4.10;;;38.20;37.40;;;;;;4994381;28;20534;-93
2022/06/15 10:43:02;;;;;;;4.17;3.80;;;38.60;36.90;;;;;;4987231;28;20432;-87
2022/06/15 10:45:42;;;;;;;6.10;4.10;;;38.90;34.50;;;;;;4987076;28;20435;-91
2022/06/15 10:48:20;;;;;;;3.83;3.30;;;38.30;36.90;;;;;;4978039;28;20962;-92
2022/06/15 10:51:05;;;;;;;4.37;4.00;;;39.00;36.50;;;;;;4966545;28;20425;-91
2022/06/15 10:54:10;;;;;;;3.63;3.43;;;39.20;34.50;;;;;;4964367;28;20433;-92
2022/06/15 11:03:08;;;;;;;4.40;4.20;;;39.40;48.60;;;;;;4990618;28;20471;-92
2022/06/15 11:05:38;;;;;;;4.00;3.87;;;39.80;38.30;;;;;;4986391;28;20429;-89
2022/06/15 11:08:15;;;;;;;4.27;4.07;;;39.60;36.20;;;;;;5000264;28;20978;-92
2022/06/15 11:10:44;;;;;;;3.90;3.70;;;40.20;35.60;;;;;;4969537;28;20953;-92
2022/06/15 11:13:19;;;;;;;4.03;3.73;;;40.00;35.70;;;;;;4969347;28;20452;-91
2022/06/15 11:18:45;;;;;;;7.70;5.03;;;38.70;36.10;;;;;;4987809;28;20440;-91
2022/06/15 11:21:35;;;;;;;4.40;4.00;;;39.50;35.20;;;;;;4982927;28;20458;-91
2022/06/15 11:24:32;;;;;;;5.77;3.93;;;38.60;51.20;;;;;;4987255;28;20554;-91
2022/06/15 11:27:23;;;;;;;4.60;4.30;;;38.90;36.20;;;;;;4974055;28;20464;-93
2022/06/15 11:30:06;;;;;;;4.00;3.80;;;39.00;33.70;;;;;;4973395;28;20421;-91
2022/06/15 11:32:57;;;;;;;3.63;3.43;;;38.40;50.30;;;;;;4988408;28;20455;-92
2022/06/15 11:36:01;;;;;;;3.80;3.50;;;39.20;37.70;;;;;;4992752;28;20497;-95
2022/06/15 11:38:39;;;;;;;3.17;3.00;;;39.20;35.30;;;;;;5108010;22;20479;-91
2022/06/15 11:41:17;;;;;;;3.33;3.30;;;38.50;35.50;;;;;;5052216;23;20483;-93
2022/06/15 11:43:45;;;;;;;3.97;3.80;;;39.10;52.40;;;;;;5015166;28;20505;-91
2022/06/15 11:46:47;;;;;;;3.60;3.50;;;39.50;39.10;;;;;;5056162;23;20602;-90
2022/06/15 11:49:30;;;;;;;3.70;3.50;;;40.50;34.70;;;;;;4970134;28;20445;-92
2022/06/15 11:52:18;;;;;;;3.60;3.50;;;38.80;36.40;;;;;;4974231;28;20515;-90
2022/06/15 11:54:58;;;;;;;5.40;3.70;;;41.50;36.00;;;;;;4991802;28;20453;-92
2022/06/15 11:58:21;;;;;;;4.17;3.90;;;37.80;52.30;;;;;;4995868;28;20440;-92
2022/06/15 12:01:15;;;;;;;3.80;3.60;;;38.50;37.10;;;;;;4988355;28;20508;-89
2022/06/15 12:06:36;;;;;;;4.20;4.00;;;36.90;39.30;;;;;;5011696;28;20459;-89
2022/06/15 12:09:18;;;;;;;5.97;3.80;;;37.20;37.40;;;;;;4998748;28;20452;-92
2022/06/15 12:15:08;;;;;;;3.70;2.90;;;36.90;53.50;;;;;;5083874;22;20501;-94
2022/06/15 12:17:39;;;;;;;3.77;3.50;;;37.10;36.20;;;;;;4975538;28;20437;-92
2022/06/15 12:20:17;;;;;;;3.87;3.50;;;37.30;51.60;;;;;;4976622;28;20516;-90
2022/06/15 12:22:46;;;;;;;4.00;3.43;;;37.50;35.00;;;;;;4976507;28;20438;-90
2022/06/15 12:25:39;;;;;;;6.43;4.20;;;37.20;39.30;;;;;;4953447;29;20463;-90
2022/06/15 12:28:29;;;;;;;4.60;4.20;;;37.10;37.20;;;;;;4938878;29;20479;-88
2022/06/15 12:31:08;;;;;;;7.53;3.70;;;38.50;37.10;;;;;;4954158;29;20514;-91
2022/06/15 12:34:02;;;;;;;7.33;3.27;;;37.40;36.80;;;;;;4963518;28;20456;-89
2022/06/15 12:36:31;;;;;;;3.50;3.20;;;38.70;38.50;;;;;;4993349;28;20434;-89
2022/06/15 12:39:36;;;;;;;;;;;;;;;;;;;;;
2022/06/15 12:42:14;;;;;;;2.47;2.37;;;39.00;50.10;;;;;;4975826;28;20448;-93
2022/06/15 12:45:28;;;;;;;2.63;2.53;;;39.00;35.30;;;;;;4951163;29;20434;-94
2022/06/15 12:47:59;;;;;;;2.60;2.50;;;39.90;34.30;;;;;;4948755;29;20530;-91
2022/06/15 12:50:39;;;;;;;4.30;2.87;;;40.60;48.60;;;;;;4953286;29;20468;-89
2022/06/15 12:53:11;;;;;;;2.40;2.20;;;40.90;49.80;;;;;;4940777;28;20439;-90
2022/06/15 13:01:31;;;;;;;3.30;2.97;;;40.20;32.30;;;;;;5479644;22;20224;-89
2022/06/15 13:07:54;;;;;;;3.13;2.93;;;39.50;35.40;;;;;;4950660;29;20453;-91
2022/06/15 13:11:06;;;;;;;3.03;2.83;;;39.10;35.60;;;;;;4984634;28;20435;-92
2022/06/15 13:16:55;;;;;;;3.70;3.43;;;39.50;36.00;;;;;;5001943;28;20448;-94
2022/06/15 13:19:47;;;;;;;3.53;3.33;;;39.90;49.30;;;;;;4993797;28;20460;-91
2022/06/15 13:22:56;;;;;;;3.53;3.23;;;39.80;35.40;;;;;;4993410;28;20464;-93
2022/06/15 13:25:47;;;;;;;3.57;3.37;;;38.80;51.50;;;;;;4967028;28;20429;-89
2022/06/15 13:28:17;;;;;;;3.37;3.17;;;38.30;51.00;;;;;;4973103;28;20429;-87
2022/06/15 13:30:49;;;;;;;5.23;3.73;;;38.30;37.30;;;;;;4978178;28;20437;-89
2022/06/15 13:33:50;;;;;;;2.77;2.60;;;38.80;35.50;;;;;;5010529;28;20425;-93
2022/06/15 13:36:43;;;;;;;5.20;3.83;;;37.50;49.00;;;;;;4975765;28;20455;-95
2022/06/15 13:39:57;;;;;;;3.43;3.33;;;37.50;31.40;;;;;;4987406;28;20402;-90
2022/06/15 13:42:45;;;;;;;3.37;3.07;;;38.00;50.20;;;;;;4983896;28;20436;-94
2022/06/15 13:45:34;;;;;;;3.30;3.20;;;39.90;31.80;;;;;;4982040;28;20460;-94
2022/06/15 13:48:36;;;;;;;3.50;3.40;;;38.90;36.10;;;;;;4978645;28;20417;-94
2022/06/15 13:51:21;;;;;;;3.30;3.20;;;38.50;39.30;;;;;;4925018;29;20451;-91
2022/06/15 13:54:21;;;;;;;5.40;5.20;;;37.60;38.40;;;;;;4983766;28;20461;-92
2022/06/15 13:56:50;;;;;;;4.47;3.97;;;;;;;;;;4969843;28;20471;-90
2022/06/15 13:59:35;;;;;;;3.40;3.30;;;;;;;;;;4977790;28;20467;-91
2022/06/15 14:02:47;;;;;;;4.10;3.93;;;36.10;39.20;;;;;;4974003;28;20452;-91
2022/06/15 14:05:41;;;;;;;4.13;3.80;;;;;;;;;;4967446;28;20433;-90
2022/06/15 14:08:25;;;;;;;3.57;3.37;;;;;;;;;;4970367;28;20452;-93
2022/06/15 14:11:32;;;;;;;8.90;3.83;;;37.50;38.90;;;;;;4996039;28;20429;-92
2022/06/15 14:14:04;;;;;;;3.83;3.53;;;;;;;;;;5011176;28;20488;-92
2022/06/15 14:17:01;;;;;;;3.87;3.57;;;37.10;42.30;;;;;;4987947;28;20450;-93
2022/06/15 14:19:33;;;;;;;3.37;3.13;;;36.90;42.30;;;;;;4977130;28;20502;-90
2022/06/15 14:22:22;;;;;;;3.70;3.50;;;35.90;40.00;;;;;;4967597;28;20446;-93
2022/06/15 14:24:59;;;;;;;3.03;3.03;;;36.10;42.60;;;;;;4994389;28;20429;-92
2022/06/15 14:27:31;;;;;;;4.30;4.00;;;36.50;42.40;;;;;;5004068;28;20490;-94
2022/06/15 14:30:09;;;;;;;4.80;3.60;;;36.20;43.20;;;;;;4969709;28;20421;-94
2022/06/15 14:32:37;;;;;;;3.70;3.60;;;36.60;42.60;;;;;;4980074;28;20454;-90
2022/06/15 14:35:03;;;;;;;3.73;3.53;;;;;;;;;;4997038;28;20416;-90
2022/06/15 14:37:30;;;;;;;6.20;3.97;;;36.70;54.00;;;;;;4996438;28;20446;-94
2022/06/15 14:39:56;;;;;;;3.73;3.53;;;35.80;54.20;;;;;;4996902;28;20464;-90
2022/06/15 14:45:18;;;;;;;3.50;3.40;;;35.00;42.90;;;;;;4762472;22;21379;-92
2022/06/15 14:53:39;;;;;;;3.90;3.73;;;34.10;32.70;;;;;;5162534;22;20491;-95
2022/06/15 14:56:08;;;;;;;4.50;4.10;;;;;;;;;;5015389;28;20431;-91
2022/06/15 14:58:39;;;;;;;6.90;6.40;;;;;;;;;;5011863;28;20701;-93
2022/06/15 15:01:10;;;;;;;4.50;4.20;;;32.30;48.90;;;;;;4974570;28;20473;-88
2022/06/15 15:03:40;;;;;;;4.17;3.90;;;;;;;;;;5015948;28;20511;-91
2022/06/15 15:06:17;;;;;;;5.07;4.60;;;31.50;53.40;;;;;;5235580;22;20491;-92
2022/06/15 15:08:57;;;;;;;5.33;4.90;;;;;;;;;;4955283;28;20414;-88
2022/06/15 15:11:45;;;;;;;5.20;4.00;;;;;;;;;;4993982;28;20454;-92
2022/06/15 15:14:15;;;;;;;4.77;4.37;;;;;;;;;;4972388;28;20407;-91
2022/06/15 15:16:41;;;;;;;4.57;4.33;;;;;;;;;;4981486;28;20449;-94
2022/06/15 15:19:11;;;;;;;4.33;4.03;;;30.40;47.30;;;;;;4993515;28;20559;-91
2022/06/15 15:21:47;;;;;;;5.00;4.73;;;30.40;47.00;;;;;;4969637;28;20471;-91
2022/06/15 15:24:32;;;;;;;4.40;4.10;;;30.20;49.30;;;;;;5097136;22;20473;-92
2022/06/15 15:27:01;;;;;;;4.70;4.30;;;;;;;;;;4990873;28;20440;-91
2022/06/15 15:35:20;;;;;;;4.20;4.00;;;29.60;50.60;;;;;;4986524;28;20421;-91
2022/06/15 15:37:50;;;;;;;4.50;4.30;;;;;;;;;;5009031;28;20447;-92
2022/06/15 15:40:21;;;;;;;5.10;4.70;;;29.60;50.40;;;;;;5006277;28;20994;-92
2022/06/15 15:42:47;;;;;;;6.10;5.90;;;;;;;;;;4964701;28;20488;-87
2022/06/15 15:45:24;;;;;;;4.60;4.23;;;29.50;51.20;;;;;;4979281;28;20452;-89
2022/06/15 15:47:53;;;;;;;5.03;4.80;;;;;;;;;;4977834;28;20429;-90
2022/06/15 15:50:19;;;;;;;4.43;4.33;;;;;;;;;;5019088;28;20499;-88
2022/06/15 15:52:57;;;;;;;4.50;4.20;;;;;;;;;;5013825;28;20440;-92
2022/06/15 15:55:26;;;;;;;5.40;5.10;;;;;;;;;;4967631;28;20433;-88
2022/06/15 15:57:53;;;;;;;7.30;5.13;;;28.70;51.10;;;;;;5006545;28;20432;-89
2022/06/15 16:00:24;;;;;;;7.27;4.53;;;29.50;51.40;;;;;;4994674;28;20470;-89
2022/06/15 16:02:54;;;;;;;6.60;4.57;;;29.40;51.50;;;;;;4958486;28;20672;-89
2022/06/15 16:05:24;;;;;;;4.10;3.80;;;;;;;;;;4958334;28;20454;-86
2022/06/15 16:07:50;;;;;;;4.97;4.53;;;;;;;;;;5002053;28;20527;-90
2022/06/15 16:10:23;;;;;;;3.80;3.80;;;29.40;51.50;;;;;;4980957;28;20443;-89
2022/06/15 16:12:49;;;;;;;4.67;4.47;;;;;;;;;;4963050;28;20457;-87
2022/06/15 16:15:26;;;;;;;5.50;5.00;;;29.40;51.40;;;;;;4980666;28;20434;-89
2022/06/15 16:17:52;;;;;;;4.93;4.70;;;;;;;;;;4962891;28;20426;-90
2022/06/15 16:20:42;;;;;;;5.97;5.63;;;29.60;51.60;;;;;;4998644;28;20528;-85
2022/06/15 16:23:11;;;;;;;5.27;4.97;;;;;;;;;;4961523;28;20427;-90
2022/06/15 16:25:44;;;;;;;5.33;5.00;;;29.40;52.10;;;;;;4985808;28;20428;-91
2022/06/15 16:28:10;;;;;;;4.87;4.67;;;;;;;;;;4981506;28;20433;-91
2022/06/15 16:31:12;;;;;;;8.80;8.00;;;29.50;53.10;;;;;;5001081;28;20419;-88
2022/06/15 16:33:41;;;;;;;5.50;5.00;;;29.60;58.30;;;;;;4973578;28;20441;-92
2022/06/15 16:36:14;;;;;;;5.77;5.47;;;29.40;42.90;;;;;;4996602;28;20415;-88
2022/06/15 16:39:04;;;;;;;;;;;;;;;;;;;;;
2022/06/15 16:41:30;;;;;;;5.30;5.00;;;;;;;;;;4992254;28;20530;-90
2022/06/15 16:43:59;;;;;;;5.30;4.80;;;;;;;;;;4991436;28;20466;-88
2022/06/15 16:46:36;;;;;;;7.20;5.43;;;29.30;52.50;;;;;;5011800;28;20474;-89
2022/06/15 16:49:03;;;;;;;5.07;4.67;;;;;;;;;;4992615;28;20969;-87
2022/06/15 16:51:31;;;;;;;5.07;4.67;;;29.20;53.20;;;;;;4994570;28;20526;-85
2022/06/15 16:53:59;;;;;;;6.73;5.27;;;;;;;;;;4994800;28;21005;-87
2022/06/15 16:56:34;;;;;;;6.17;5.67;;;29.30;52.60;;;;;;5000463;28;20419;-87
2022/06/15 16:59:06;;;;;;;4.20;4.00;;;29.00;52.40;;;;;;4976755;28;20486;-88
2022/06/15 17:01:45;;;;;;;5.90;5.40;;;;;;;;;;4978025;28;20428;-89
2022/06/15 17:04:11;;;;;;;5.47;4.80;;;;;;;;;;4985225;28;20515;-87
2022/06/15 17:06:38;;;;;;;4.73;4.43;;;29.00;50.80;;;;;;4996022;28;20475;-89
2022/06/15 17:09:10;;;;;;;4.90;4.80;;;29.00;50.90;;;;;;4994187;28;20447;-88
2022/06/15 17:11:38;;;;;;;5.90;5.60;;;;;;;;;;4973333;28;20436;-88
2022/06/15 17:14:05;;;;;;;5.33;5.13;;;;;;;;;;4994393;28;20443;-87
2022/06/15 17:16:31;;;;;;;6.07;4.77;;;;;;;;;;4996572;28;20730;-88
2022/06/15 17:18:57;;;;;;;8.30;5.47;;;;;;;;;;4993367;28;20438;-90
2022/06/15 17:21:23;;;;;;;4.50;4.20;;;;;;;;;;5013007;28;20439;-87
2022/06/15 17:23:59;;;;;;;5.53;5.23;;;28.60;56.50;;;;;;4987002;28;21157;-88
2022/06/15 17:26:25;;;;;;;5.97;5.40;;;;;;;;;;4976120;28;20501;-88
2022/06/15 17:28:53;;;;;;;5.20;5.00;;;;;;;;;;4995475;28;20454;-87
2022/06/15 17:31:22;;;;;;;6.17;4.40;;;28.50;56.10;;;;;;4999684;28;20415;-88
2022/06/15 17:33:48;;;;;;;4.80;4.60;;;;;;;;;;4995438;28;20444;-87
2022/06/15 17:36:19;;;;;;;8.33;7.83;;;28.40;56.60;;;;;;4995796;28;20423;-87
2022/06/15 17:38:47;;;;;;;5.97;5.57;;;28.30;55.40;;;;;;4981062;28;21013;-87
2022/06/15 17:41:17;;;;;;;20.90;5.77;;;28.30;57.20;;;;;;4995845;28;20463;-86
2022/06/15 17:43:43;;;;;;;8.63;7.47;;;;;;;;;;4966726;28;20443;-88
2022/06/15 17:46:09;;;;;;;5.70;4.10;;;;;;;;;;4997087;28;20403;-88
2022/06/15 17:48:37;;;;;;;5.37;4.97;;;;;;;;;;5012956;28;20498;-88
2022/06/15 17:51:03;;;;;;;5.70;4.57;;;;;;;;;;4997831;28;20404;-87
2022/06/15 17:53:30;;;;;;;6.70;6.13;;;;;;;;;;4995515;28;20439;-88
2022/06/15 17:55:56;;;;;;;6.80;6.03;;;;;;;;;;4998624;28;20477;-87
2022/06/15 17:58:25;;;;;;;6.43;6.03;;;27.80;58.10;;;;;;5024270;28;20435;-85
2022/06/15 18:00:51;;;;;;;5.90;5.30;;;;;;;;;;5008036;28;20469;-85
2022/06/15 18:03:17;;;;;;;6.33;5.17;;;;;;;;;;4996413;28;20514;-88
2022/06/15 18:05:46;;;;;;;5.30;5.00;;;;;;;;;;4996205;28;20479;-87
2022/06/15 18:08:12;;;;;;;5.67;5.20;;;;;;;;;;4993483;28;20471;-87
2022/06/15 18:10:38;;;;;;;5.77;5.27;;;;;;;;;;4995100;28;20889;-87
2022/06/15 18:13:05;;;;;;;6.30;5.30;;;;;;;;;;4993482;28;20690;-88
2022/06/15 18:15:33;;;;;;;4.93;4.50;;;27.30;56.80;;;;;;4998657;28;20415;-87
2022/06/15 18:17:59;;;;;;;5.93;5.43;;;;;;;;;;5016926;28;20439;-87
2022/06/15 18:20:28;;;;;;;7.63;6.93;;;27.30;58.90;;;;;;4979361;28;20468;-85
2022/06/15 18:22:55;;;;;;;6.50;5.90;;;27.30;56.00;;;;;;5001146;28;20451;-86
2022/06/15 18:25:21;;;;;;;5.33;4.83;;;;;;;;;;4971617;28;20468;-87
2022/06/15 18:27:48;;;;;;;5.00;4.60;;;27.10;57.00;;;;;;4993654;28;20515;-86
2022/06/15 18:30:17;;;;;;;5.40;5.00;;;27.10;57.20;;;;;;4979029;28;20437;-87
2022/06/15 18:32:46;;;;;;;3.80;3.60;;;27.00;58.00;;;;;;4996298;28;20435;-91
2022/06/15 18:35:16;;;;;;;4.53;4.23;;;27.00;58.10;;;;;;4977023;28;20429;-88
2022/06/15 18:37:50;;;;;;;5.83;5.43;;;26.90;57.70;;;;;;4975109;28;20422;-90
2022/06/15 18:40:16;;;;;;;4.80;4.60;;;;;;;;;;4951494;28;20702;-88
2022/06/15 18:42:45;;;;;;;5.30;4.90;;;26.80;59.10;;;;;;4995361;28;20547;-91
2022/06/15 18:47:56;;;;;;;5.93;4.70;;;26.70;52.40;;;;;;4955983;29;20770;-86
2022/06/15 18:50:26;;;;;;;3.87;3.70;;;26.70;57.70;;;;;;4989509;28;20519;-87
2022/06/15 18:52:56;;;;;;;5.70;5.50;;;26.60;57.40;;;;;;4994786;28;20188;-86
2022/06/15 18:55:29;;;;;;;5.10;4.33;;;26.70;58.50;;;;;;4991863;28;20433;-86
2022/06/15 18:57:59;;;;;;;6.17;5.03;;;26.70;57.90;;;;;;4282062;28;10000719;-86
2022/06/15 19:00:28;;;;;;;4.37;4.07;;;26.60;58.20;;;;;;4980372;28;20275;-85
2022/06/15 19:02:54;;;;;;;4.23;4.00;;;;;;;;;;4956542;28;20446;-87
2022/06/15 19:05:25;;;;;;;4.80;4.53;;;26.50;58.20;;;;;;4968669;28;20442;-86
2022/06/15 19:07:55;;;;;;;4.97;4.43;;;26.50;58.50;;;;;;4956517;28;20829;-84
2022/06/15 19:10:22;;;;;;;4.47;4.27;;;;;;;;;;4977829;28;20795;-87
2022/06/15 19:12:51;;;;;;;4.90;4.70;;;;;;;;;;4971666;28;20445;-86
2022/06/15 19:17:56;;;;;;;4.30;4.20;;;;;;;;;;4965913;28;20469;-87
2022/06/15 19:20:22;;;;;;;4.93;4.60;;;;;;;;;;4969152;28;20465;-88
2022/06/15 19:22:48;;;;;;;5.67;5.17;;;;;;;;;;4954270;28;20486;-86
2022/06/15 19:25:14;;;;;;;5.10;4.30;;;;;;;;;;4951602;28;20430;-87
2022/06/15 19:27:53;;;;;;;5.07;4.77;;;25.90;65.10;;;;;;4946069;28;21143;-87
2022/06/15 19:30:22;;;;;;;3.80;3.60;;;;;;;;;;4947533;29;20478;-86
2022/06/15 19:32:54;;;;;;;5.03;4.83;;;;;;;;;;4966682;28;20479;-88
2022/06/15 19:35:21;;;;;;;4.33;4.07;;;;;;;;;;4948228;28;20445;-88